sensor_id;sensor_type;location;lat;lon;timestamp;temperature;humidity
12901;DHT22;6518;50.930;5.344;2022-09-16T00:01:00;15.70;76.40
12901;DHT22;6518;50.930;5.344;2022-09-16T00:03:27;15.70;76.70
12901;DHT22;6518;50.930;5.344;2022-09-16T00:05:54;15.60;76.80
12901;DHT22;6518;50.930;5.344;2022-09-16T00:08:21;15.60;77.00
12901;DHT22;6518;50.930;5.344;2022-09-16T00:10:48;15.50;77.30
12901;DHT22;6518;50.930;5.344;2022-09-16T00:13:17;15.50;77.70
12901;DHT22;6518;50.930;5.344;2022-09-16T00:15:45;15.50;78.30
12901;DHT22;6518;50.930;5.344;2022-09-16T00:18:13;15.50;78.60
12901;DHT22;6518;50.930;5.344;2022-09-16T00:20:44;15.50;78.40
12901;DHT22;6518;50.930;5.344;2022-09-16T00:23:11;15.50;78.70
12901;DHT22;6518;50.930;5.344;2022-09-16T00:25:38;15.50;79.30
12901;DHT22;6518;50.930;5.344;2022-09-16T00:28:05;15.60;79.40
12901;DHT22;6518;50.930;5.344;2022-09-16T00:30:34;15.60;79.70
12901;DHT22;6518;50.930;5.344;2022-09-16T00:33:01;15.60;79.60
12901;DHT22;6518;50.930;5.344;2022-09-16T00:35:28;15.50;79.50
12901;DHT22;6518;50.930;5.344;2022-09-16T00:37:55;15.50;79.80
12901;DHT22;6518;50.930;5.344;2022-09-16T00:40:22;15.50;80.00
12901;DHT22;6518;50.930;5.344;2022-09-16T00:42:48;15.50;80.40
12901;DHT22;6518;50.930;5.344;2022-09-16T00:45:17;15.60;80.80
12901;DHT22;6518;50.930;5.344;2022-09-16T00:47:48;15.50;80.30
12901;DHT22;6518;50.930;5.344;2022-09-16T00:50:21;15.50;80.10
12901;DHT22;6518;50.930;5.344;2022-09-16T00:52:49;15.40;80.20
12901;DHT22;6518;50.930;5.344;2022-09-16T00:55:21;15.40;80.40
12901;DHT22;6518;50.930;5.344;2022-09-16T00:57:50;15.30;80.20
12901;DHT22;6518;50.930;5.344;2022-09-16T01:00:18;15.20;80.80
12901;DHT22;6518;50.930;5.344;2022-09-16T01:02:46;15.20;81.00
12901;DHT22;6518;50.930;5.344;2022-09-16T01:05:16;15.20;81.10
12901;DHT22;6518;50.930;5.344;2022-09-16T01:07:45;15.20;81.30
12901;DHT22;6518;50.930;5.344;2022-09-16T01:10:14;15.10;81.50
12901;DHT22;6518;50.930;5.344;2022-09-16T01:12:43;15.10;81.70
12901;DHT22;6518;50.930;5.344;2022-09-16T01:15:11;15.10;81.90
12901;DHT22;6518;50.930;5.344;2022-09-16T01:17:58;15.10;81.90
12901;DHT22;6518;50.930;5.344;2022-09-16T01:20:58;15.10;81.80
12901;DHT22;6518;50.930;5.344;2022-09-16T01:23:59;15.00;82.00
12901;DHT22;6518;50.930;5.344;2022-09-16T01:27:07;15.10;82.30
12901;DHT22;6518;50.930;5.344;2022-09-16T01:30:12;15.00;81.50
12901;DHT22;6518;50.930;5.344;2022-09-16T01:32:52;15.00;81.80
12901;DHT22;6518;50.930;5.344;2022-09-16T01:35:27;14.90;82.10
12901;DHT22;6518;50.930;5.344;2022-09-16T01:38:05;14.90;82.40
12901;DHT22;6518;50.930;5.344;2022-09-16T01:40:39;15.00;82.70
12901;DHT22;6518;50.930;5.344;2022-09-16T01:43:16;15.00;82.50
12901;DHT22;6518;50.930;5.344;2022-09-16T01:45:51;15.00;82.60
12901;DHT22;6518;50.930;5.344;2022-09-16T01:48:23;15.00;81.30
12901;DHT22;6518;50.930;5.344;2022-09-16T01:50:58;15.00;81.10
12901;DHT22;6518;50.930;5.344;2022-09-16T01:53:31;15.00;81.00
12901;DHT22;6518;50.930;5.344;2022-09-16T01:56:04;15.00;80.90
12901;DHT22;6518;50.930;5.344;2022-09-16T01:58:35;15.00;80.60
12901;DHT22;6518;50.930;5.344;2022-09-16T02:01:06;15.00;80.10
12901;DHT22;6518;50.930;5.344;2022-09-16T02:03:39;15.00;79.80
12901;DHT22;6518;50.930;5.344;2022-09-16T02:06:08;14.90;79.60
12901;DHT22;6518;50.930;5.344;2022-09-16T02:08:40;14.90;80.30
12901;DHT22;6518;50.930;5.344;2022-09-16T02:11:11;14.90;79.00
12901;DHT22;6518;50.930;5.344;2022-09-16T02:13:43;14.80;79.00
12901;DHT22;6518;50.930;5.344;2022-09-16T02:16:15;14.80;79.10
12901;DHT22;6518;50.930;5.344;2022-09-16T02:18:51;14.80;78.60
12901;DHT22;6518;50.930;5.344;2022-09-16T02:21:20;14.80;78.20
12901;DHT22;6518;50.930;5.344;2022-09-16T02:23:51;14.70;77.90
12901;DHT22;6518;50.930;5.344;2022-09-16T02:26:26;14.60;78.00
12901;DHT22;6518;50.930;5.344;2022-09-16T02:28:55;14.70;78.50
12901;DHT22;6518;50.930;5.344;2022-09-16T02:31:25;14.60;78.60
12901;DHT22;6518;50.930;5.344;2022-09-16T02:33:58;14.60;78.40
12901;DHT22;6518;50.930;5.344;2022-09-16T02:36:26;14.60;77.70
12901;DHT22;6518;50.930;5.344;2022-09-16T02:38:58;14.60;77.80
12901;DHT22;6518;50.930;5.344;2022-09-16T02:41:26;14.60;77.40
12901;DHT22;6518;50.930;5.344;2022-09-16T02:43:53;14.50;77.20
12901;DHT22;6518;50.930;5.344;2022-09-16T02:46:25;14.50;77.30
12901;DHT22;6518;50.930;5.344;2022-09-16T02:49:03;14.50;77.30
12901;DHT22;6518;50.930;5.344;2022-09-16T02:51:40;14.50;77.20
12901;DHT22;6518;50.930;5.344;2022-09-16T02:54:15;14.40;77.00
12901;DHT22;6518;50.930;5.344;2022-09-16T02:56:45;14.40;77.20
12901;DHT22;6518;50.930;5.344;2022-09-16T02:59:13;14.40;77.10
12901;DHT22;6518;50.930;5.344;2022-09-16T03:01:42;14.40;77.50
12901;DHT22;6518;50.930;5.344;2022-09-16T03:04:12;14.40;77.40
12901;DHT22;6518;50.930;5.344;2022-09-16T03:06:40;14.40;77.40
12901;DHT22;6518;50.930;5.344;2022-09-16T03:09:08;14.40;77.80
12901;DHT22;6518;50.930;5.344;2022-09-16T03:12:04;14.40;77.00
12901;DHT22;6518;50.930;5.344;2022-09-16T03:14:46;14.30;77.00
12901;DHT22;6518;50.930;5.344;2022-09-16T03:17:29;14.30;76.60
12901;DHT22;6518;50.930;5.344;2022-09-16T03:20:05;14.30;76.60
12901;DHT22;6518;50.930;5.344;2022-09-16T03:22:46;14.30;76.50
12901;DHT22;6518;50.930;5.344;2022-09-16T03:25:24;14.20;76.30
12901;DHT22;6518;50.930;5.344;2022-09-16T03:28:00;14.30;76.40
12901;DHT22;6518;50.930;5.344;2022-09-16T03:30:31;14.20;76.50
12901;DHT22;6518;50.930;5.344;2022-09-16T03:33:05;14.30;76.70
12901;DHT22;6518;50.930;5.344;2022-09-16T03:35:39;14.20;76.50
12901;DHT22;6518;50.930;5.344;2022-09-16T03:38:11;14.20;76.10
12901;DHT22;6518;50.930;5.344;2022-09-16T03:40:40;14.20;76.00
12901;DHT22;6518;50.930;5.344;2022-09-16T03:43:11;14.20;75.90
12901;DHT22;6518;50.930;5.344;2022-09-16T03:45:38;14.10;75.90
12901;DHT22;6518;50.930;5.344;2022-09-16T03:48:07;14.10;75.80
12901;DHT22;6518;50.930;5.344;2022-09-16T03:50:36;14.00;75.90
12901;DHT22;6518;50.930;5.344;2022-09-16T03:53:03;14.00;76.10
12901;DHT22;6518;50.930;5.344;2022-09-16T03:55:30;14.00;76.10
12901;DHT22;6518;50.930;5.344;2022-09-16T03:57:57;13.90;76.20
12901;DHT22;6518;50.930;5.344;2022-09-16T04:00:23;14.00;76.40
12901;DHT22;6518;50.930;5.344;2022-09-16T04:02:50;14.00;76.50
12901;DHT22;6518;50.930;5.344;2022-09-16T04:05:17;13.90;76.20
12901;DHT22;6518;50.930;5.344;2022-09-16T04:07:47;13.90;76.20
12901;DHT22;6518;50.930;5.344;2022-09-16T04:10:14;13.90;76.30
12901;DHT22;6518;50.930;5.344;2022-09-16T04:12:41;13.90;76.40
12901;DHT22;6518;50.930;5.344;2022-09-16T04:15:09;13.80;76.50
12901;DHT22;6518;50.930;5.344;2022-09-16T04:17:36;13.80;76.70
12901;DHT22;6518;50.930;5.344;2022-09-16T04:20:04;13.70;77.20
12901;DHT22;6518;50.930;5.344;2022-09-16T04:22:32;13.80;77.50
12901;DHT22;6518;50.930;5.344;2022-09-16T04:25:00;13.80;77.50
12901;DHT22;6518;50.930;5.344;2022-09-16T04:27:27;13.70;77.70
12901;DHT22;6518;50.930;5.344;2022-09-16T04:29:54;13.70;77.90
12901;DHT22;6518;50.930;5.344;2022-09-16T04:32:21;13.70;78.00
12901;DHT22;6518;50.930;5.344;2022-09-16T04:34:48;13.70;78.30
12901;DHT22;6518;50.930;5.344;2022-09-16T04:37:15;13.70;78.60
12901;DHT22;6518;50.930;5.344;2022-09-16T04:39:42;13.70;78.80
12901;DHT22;6518;50.930;5.344;2022-09-16T04:42:11;13.60;79.00
12901;DHT22;6518;50.930;5.344;2022-09-16T04:44:38;13.60;79.40
12901;DHT22;6518;50.930;5.344;2022-09-16T04:47:05;13.60;79.60
12901;DHT22;6518;50.930;5.344;2022-09-16T04:49:32;13.60;79.60
12901;DHT22;6518;50.930;5.344;2022-09-16T04:51:59;13.60;79.90
12901;DHT22;6518;50.930;5.344;2022-09-16T04:54:25;13.60;80.30
12901;DHT22;6518;50.930;5.344;2022-09-16T04:56:52;13.60;80.40
12901;DHT22;6518;50.930;5.344;2022-09-16T04:59:21;13.60;80.80
12901;DHT22;6518;50.930;5.344;2022-09-16T05:01:48;13.60;81.00
12901;DHT22;6518;50.930;5.344;2022-09-16T05:04:15;13.60;81.20
12901;DHT22;6518;50.930;5.344;2022-09-16T05:06:42;13.60;81.50
12901;DHT22;6518;50.930;5.344;2022-09-16T05:09:09;13.60;81.60
12901;DHT22;6518;50.930;5.344;2022-09-16T05:11:38;13.60;81.80
12901;DHT22;6518;50.930;5.344;2022-09-16T05:14:08;13.60;81.80
12901;DHT22;6518;50.930;5.344;2022-09-16T05:16:37;13.60;82.30
12901;DHT22;6518;50.930;5.344;2022-09-16T05:19:04;13.60;82.80
12901;DHT22;6518;50.930;5.344;2022-09-16T05:21:33;13.70;83.10
12901;DHT22;6518;50.930;5.344;2022-09-16T05:24:01;13.60;83.00
12901;DHT22;6518;50.930;5.344;2022-09-16T05:26:30;13.60;83.10
12901;DHT22;6518;50.930;5.344;2022-09-16T05:28:59;13.60;83.30
12901;DHT22;6518;50.930;5.344;2022-09-16T05:31:28;13.60;83.70
12901;DHT22;6518;50.930;5.344;2022-09-16T05:33:59;13.60;84.10
12901;DHT22;6518;50.930;5.344;2022-09-16T05:36:28;13.60;84.60
12901;DHT22;6518;50.930;5.344;2022-09-16T05:38:56;13.60;85.60
12901;DHT22;6518;50.930;5.344;2022-09-16T05:41:23;13.70;86.00
12901;DHT22;6518;50.930;5.344;2022-09-16T05:43:50;13.70;88.10
12901;DHT22;6518;50.930;5.344;2022-09-16T05:46:19;13.60;87.40
12901;DHT22;6518;50.930;5.344;2022-09-16T05:48:46;13.70;87.90
12901;DHT22;6518;50.930;5.344;2022-09-16T05:51:15;13.70;88.50
12901;DHT22;6518;50.930;5.344;2022-09-16T05:53:43;13.60;89.50
12901;DHT22;6518;50.930;5.344;2022-09-16T05:56:11;13.70;89.10
12901;DHT22;6518;50.930;5.344;2022-09-16T05:58:38;13.70;90.00
12901;DHT22;6518;50.930;5.344;2022-09-16T06:01:07;13.80;90.40
12901;DHT22;6518;50.930;5.344;2022-09-16T06:03:37;13.80;90.20
12901;DHT22;6518;50.930;5.344;2022-09-16T06:06:06;13.80;90.60
12901;DHT22;6518;50.930;5.344;2022-09-16T06:08:35;13.80;91.10
12901;DHT22;6518;50.930;5.344;2022-09-16T06:11:02;13.80;91.70
12901;DHT22;6518;50.930;5.344;2022-09-16T06:13:30;13.80;91.50
12901;DHT22;6518;50.930;5.344;2022-09-16T06:15:57;13.80;92.00
12901;DHT22;6518;50.930;5.344;2022-09-16T06:18:26;13.80;91.90
12901;DHT22;6518;50.930;5.344;2022-09-16T06:20:54;13.80;92.40
12901;DHT22;6518;50.930;5.344;2022-09-16T06:23:21;13.90;92.60
12901;DHT22;6518;50.930;5.344;2022-09-16T06:25:58;13.90;93.00
12901;DHT22;6518;50.930;5.344;2022-09-16T06:28:25;13.90;93.40
12901;DHT22;6518;50.930;5.344;2022-09-16T06:31:00;13.90;93.10
12901;DHT22;6518;50.930;5.344;2022-09-16T06:33:27;14.00;93.50
12901;DHT22;6518;50.930;5.344;2022-09-16T06:35:54;14.10;93.30
12901;DHT22;6518;50.930;5.344;2022-09-16T06:38:23;14.10;93.40
12901;DHT22;6518;50.930;5.344;2022-09-16T06:40:51;14.20;93.20
12901;DHT22;6518;50.930;5.344;2022-09-16T06:43:18;14.20;92.60
12901;DHT22;6518;50.930;5.344;2022-09-16T06:45:44;14.10;92.50
12901;DHT22;6518;50.930;5.344;2022-09-16T06:48:11;14.00;92.90
12901;DHT22;6518;50.930;5.344;2022-09-16T06:50:38;14.00;93.30
12901;DHT22;6518;50.930;5.344;2022-09-16T06:53:05;13.90;93.90
12901;DHT22;6518;50.930;5.344;2022-09-16T06:55:32;13.90;93.60
12901;DHT22;6518;50.930;5.344;2022-09-16T06:58:00;13.90;94.50
12901;DHT22;6518;50.930;5.344;2022-09-16T07:00:27;13.80;94.90
12901;DHT22;6518;50.930;5.344;2022-09-16T07:02:54;13.80;94.60
12901;DHT22;6518;50.930;5.344;2022-09-16T07:05:21;13.80;94.60
12901;DHT22;6518;50.930;5.344;2022-09-16T07:07:48;13.90;95.10
12901;DHT22;6518;50.930;5.344;2022-09-16T07:10:15;14.00;95.00
12901;DHT22;6518;50.930;5.344;2022-09-16T07:12:42;14.00;94.80
12901;DHT22;6518;50.930;5.344;2022-09-16T07:15:10;14.10;94.60
12901;DHT22;6518;50.930;5.344;2022-09-16T07:17:37;14.00;94.80
12901;DHT22;6518;50.930;5.344;2022-09-16T07:20:04;14.10;94.80
12901;DHT22;6518;50.930;5.344;2022-09-16T07:22:32;14.10;94.60
12901;DHT22;6518;50.930;5.344;2022-09-16T07:24:58;14.10;95.10
12901;DHT22;6518;50.930;5.344;2022-09-16T07:27:25;14.20;95.30
12901;DHT22;6518;50.930;5.344;2022-09-16T07:29:52;14.20;95.20
12901;DHT22;6518;50.930;5.344;2022-09-16T07:32:22;14.30;94.80
12901;DHT22;6518;50.930;5.344;2022-09-16T07:34:49;14.30;95.10
12901;DHT22;6518;50.930;5.344;2022-09-16T07:37:16;14.50;95.70
12901;DHT22;6518;50.930;5.344;2022-09-16T07:39:44;14.60;94.90
12901;DHT22;6518;50.930;5.344;2022-09-16T07:42:11;14.60;94.30
12901;DHT22;6518;50.930;5.344;2022-09-16T07:44:38;14.60;94.60
12901;DHT22;6518;50.930;5.344;2022-09-16T07:47:05;14.70;94.30
12901;DHT22;6518;50.930;5.344;2022-09-16T07:49:33;14.70;93.50
12901;DHT22;6518;50.930;5.344;2022-09-16T07:52:00;14.70;93.70
12901;DHT22;6518;50.930;5.344;2022-09-16T07:54:27;14.80;92.90
12901;DHT22;6518;50.930;5.344;2022-09-16T07:56:54;14.80;92.40
12901;DHT22;6518;50.930;5.344;2022-09-16T07:59:22;14.80;92.70
12901;DHT22;6518;50.930;5.344;2022-09-16T08:01:49;14.80;92.80
12901;DHT22;6518;50.930;5.344;2022-09-16T08:04:17;14.80;92.50
12901;DHT22;6518;50.930;5.344;2022-09-16T08:06:46;14.70;91.90
12901;DHT22;6518;50.930;5.344;2022-09-16T08:09:13;14.70;91.60
12901;DHT22;6518;50.930;5.344;2022-09-16T08:11:40;14.60;92.20
12901;DHT22;6518;50.930;5.344;2022-09-16T08:14:07;14.50;92.30
12901;DHT22;6518;50.930;5.344;2022-09-16T08:16:34;14.40;92.00
12901;DHT22;6518;50.930;5.344;2022-09-16T08:19:01;14.30;92.50
12901;DHT22;6518;50.930;5.344;2022-09-16T08:21:28;14.30;92.70
12901;DHT22;6518;50.930;5.344;2022-09-16T08:23:57;14.30;93.40
12901;DHT22;6518;50.930;5.344;2022-09-16T08:26:24;14.20;93.20
12901;DHT22;6518;50.930;5.344;2022-09-16T08:28:51;14.20;93.90
12901;DHT22;6518;50.930;5.344;2022-09-16T08:31:18;14.20;94.20
12901;DHT22;6518;50.930;5.344;2022-09-16T08:33:46;14.20;93.80
12901;DHT22;6518;50.930;5.344;2022-09-16T08:36:15;14.30;93.80
12901;DHT22;6518;50.930;5.344;2022-09-16T08:38:43;14.30;94.10
12901;DHT22;6518;50.930;5.344;2022-09-16T08:41:23;14.40;94.40
12901;DHT22;6518;50.930;5.344;2022-09-16T08:43:57;14.50;94.30
12901;DHT22;6518;50.930;5.344;2022-09-16T08:46:29;14.50;94.20
12901;DHT22;6518;50.930;5.344;2022-09-16T08:49:03;14.60;93.80
12901;DHT22;6518;50.930;5.344;2022-09-16T08:51:32;14.70;93.00
12901;DHT22;6518;50.930;5.344;2022-09-16T08:54:01;14.70;92.60
12901;DHT22;6518;50.930;5.344;2022-09-16T08:56:32;14.70;93.00
12901;DHT22;6518;50.930;5.344;2022-09-16T08:59:02;14.70;93.00
12901;DHT22;6518;50.930;5.344;2022-09-16T09:01:35;14.70;93.80
12901;DHT22;6518;50.930;5.344;2022-09-16T09:04:04;14.90;94.00
12901;DHT22;6518;50.930;5.344;2022-09-16T09:06:44;14.90;92.80
12901;DHT22;6518;50.930;5.344;2022-09-16T09:09:27;14.90;92.40
12901;DHT22;6518;50.930;5.344;2022-09-16T09:12:03;15.00;93.10
12901;DHT22;6518;50.930;5.344;2022-09-16T09:14:42;15.00;93.00
12901;DHT22;6518;50.930;5.344;2022-09-16T09:17:20;15.10;92.30
12901;DHT22;6518;50.930;5.344;2022-09-16T09:19:57;15.10;91.90
12901;DHT22;6518;50.930;5.344;2022-09-16T09:22:53;15.10;92.00
12901;DHT22;6518;50.930;5.344;2022-09-16T09:25:31;15.10;92.10
12901;DHT22;6518;50.930;5.344;2022-09-16T09:28:17;15.10;92.40
12901;DHT22;6518;50.930;5.344;2022-09-16T09:30:55;15.10;92.60
12901;DHT22;6518;50.930;5.344;2022-09-16T09:33:31;15.10;92.40
12901;DHT22;6518;50.930;5.344;2022-09-16T09:36:21;15.10;91.60
12901;DHT22;6518;50.930;5.344;2022-09-16T09:39:08;15.10;92.30
12901;DHT22;6518;50.930;5.344;2022-09-16T09:41:38;15.20;92.30
12901;DHT22;6518;50.930;5.344;2022-09-16T09:44:25;15.30;92.50
12901;DHT22;6518;50.930;5.344;2022-09-16T09:46:58;15.40;91.70
12901;DHT22;6518;50.930;5.344;2022-09-16T09:49:31;15.50;92.30
12901;DHT22;6518;50.930;5.344;2022-09-16T09:52:15;15.50;91.00
12901;DHT22;6518;50.930;5.344;2022-09-16T09:54:45;15.50;91.50
12901;DHT22;6518;50.930;5.344;2022-09-16T09:57:20;15.70;90.80
12901;DHT22;6518;50.930;5.344;2022-09-16T09:59:57;15.80;90.80
12901;DHT22;6518;50.930;5.344;2022-09-16T10:02:25;16.00;90.30
12901;DHT22;6518;50.930;5.344;2022-09-16T10:04:51;16.10;90.20
12901;DHT22;6518;50.930;5.344;2022-09-16T10:07:21;16.20;87.50
12901;DHT22;6518;50.930;5.344;2022-09-16T10:09:51;16.10;85.60
12901;DHT22;6518;50.930;5.344;2022-09-16T10:12:26;16.10;84.50
12901;DHT22;6518;50.930;5.344;2022-09-16T10:14:55;16.00;83.50
12901;DHT22;6518;50.930;5.344;2022-09-16T10:17:22;15.90;83.60
12901;DHT22;6518;50.930;5.344;2022-09-16T10:19:57;15.70;82.70
12901;DHT22;6518;50.930;5.344;2022-09-16T10:22:27;15.40;84.30
12901;DHT22;6518;50.930;5.344;2022-09-16T10:24:55;15.20;86.10
12901;DHT22;6518;50.930;5.344;2022-09-16T10:27:25;14.90;87.00
12901;DHT22;6518;50.930;5.344;2022-09-16T10:30:12;14.80;90.80
12901;DHT22;6518;50.930;5.344;2022-09-16T10:32:51;14.70;91.80
12901;DHT22;6518;50.930;5.344;2022-09-16T10:35:22;14.70;92.90
12901;DHT22;6518;50.930;5.344;2022-09-16T10:37:52;14.80;93.90
12901;DHT22;6518;50.930;5.344;2022-09-16T10:40:20;14.90;93.80
12901;DHT22;6518;50.930;5.344;2022-09-16T10:42:49;14.90;94.00
12901;DHT22;6518;50.930;5.344;2022-09-16T10:45:23;15.00;93.70
12901;DHT22;6518;50.930;5.344;2022-09-16T10:47:53;15.00;93.70
12901;DHT22;6518;50.930;5.344;2022-09-16T10:50:21;15.00;94.90
12901;DHT22;6518;50.930;5.344;2022-09-16T10:52:48;15.10;95.40
12901;DHT22;6518;50.930;5.344;2022-09-16T10:55:25;15.10;94.80
12901;DHT22;6518;50.930;5.344;2022-09-16T10:57:53;15.10;94.40
12901;DHT22;6518;50.930;5.344;2022-09-16T11:00:23;15.10;94.20
12901;DHT22;6518;50.930;5.344;2022-09-16T11:03:17;15.30;95.30
12901;DHT22;6518;50.930;5.344;2022-09-16T11:05:55;15.40;95.40
12901;DHT22;6518;50.930;5.344;2022-09-16T11:08:36;15.50;95.10
12901;DHT22;6518;50.930;5.344;2022-09-16T11:11:13;15.70;94.80
12901;DHT22;6518;50.930;5.344;2022-09-16T11:13:48;15.70;93.20
12901;DHT22;6518;50.930;5.344;2022-09-16T11:16:30;15.70;93.70
12901;DHT22;6518;50.930;5.344;2022-09-16T11:19:06;15.80;93.50
12901;DHT22;6518;50.930;5.344;2022-09-16T11:21:44;15.90;91.90
12901;DHT22;6518;50.930;5.344;2022-09-16T11:24:25;16.00;90.00
12901;DHT22;6518;50.930;5.344;2022-09-16T11:27:03;16.00;86.30
12901;DHT22;6518;50.930;5.344;2022-09-16T11:29:46;16.00;84.60
12901;DHT22;6518;50.930;5.344;2022-09-16T11:32:22;16.20;85.40
12901;DHT22;6518;50.930;5.344;2022-09-16T11:35:10;16.10;83.40
12901;DHT22;6518;50.930;5.344;2022-09-16T11:37:47;16.10;82.00
12901;DHT22;6518;50.930;5.344;2022-09-16T11:40:29;16.20;81.20
12901;DHT22;6518;50.930;5.344;2022-09-16T11:43:15;16.20;81.10
12901;DHT22;6518;50.930;5.344;2022-09-16T11:45:50;16.30;80.10
12901;DHT22;6518;50.930;5.344;2022-09-16T11:48:37;16.40;79.10
12901;DHT22;6518;50.930;5.344;2022-09-16T11:51:11;16.40;79.00
12901;DHT22;6518;50.930;5.344;2022-09-16T11:53:53;16.40;78.50
12901;DHT22;6518;50.930;5.344;2022-09-16T11:56:32;16.40;77.60
12901;DHT22;6518;50.930;5.344;2022-09-16T11:59:04;16.40;78.10
12901;DHT22;6518;50.930;5.344;2022-09-16T12:01:40;16.30;76.60
12901;DHT22;6518;50.930;5.344;2022-09-16T12:04:15;16.20;74.10
12901;DHT22;6518;50.930;5.344;2022-09-16T12:06:51;16.10;74.80
12901;DHT22;6518;50.930;5.344;2022-09-16T12:09:28;16.00;73.90
12901;DHT22;6518;50.930;5.344;2022-09-16T12:12:04;15.80;74.10
12901;DHT22;6518;50.930;5.344;2022-09-16T12:14:37;15.70;75.10
12901;DHT22;6518;50.930;5.344;2022-09-16T12:17:11;15.60;74.90
12901;DHT22;6518;50.930;5.344;2022-09-16T12:19:46;15.40;74.50
12901;DHT22;6518;50.930;5.344;2022-09-16T12:22:18;15.30;75.20
12901;DHT22;6518;50.930;5.344;2022-09-16T12:24:50;15.10;75.90
12901;DHT22;6518;50.930;5.344;2022-09-16T12:27:37;14.90;76.60
12901;DHT22;6518;50.930;5.344;2022-09-16T12:30:11;14.80;77.70
12901;DHT22;6518;50.930;5.344;2022-09-16T12:32:46;14.80;78.50
12901;DHT22;6518;50.930;5.344;2022-09-16T12:35:19;14.80;79.50
12901;DHT22;6518;50.930;5.344;2022-09-16T12:37:50;14.80;79.80
12901;DHT22;6518;50.930;5.344;2022-09-16T12:40:21;14.80;80.10
12901;DHT22;6518;50.930;5.344;2022-09-16T12:43:07;14.70;81.10
12901;DHT22;6518;50.930;5.344;2022-09-16T12:45:58;14.70;80.60
12901;DHT22;6518;50.930;5.344;2022-09-16T12:52:17;14.70;81.50
12901;DHT22;6518;50.930;5.344;2022-09-16T12:57:49;14.80;82.10
12901;DHT22;6518;50.930;5.344;2022-09-16T13:00:23;14.80;83.40
12901;DHT22;6518;50.930;5.344;2022-09-16T13:02:53;14.90;85.00
12901;DHT22;6518;50.930;5.344;2022-09-16T13:05:24;15.00;85.30
12901;DHT22;6518;50.930;5.344;2022-09-16T13:07:56;15.10;86.60
12901;DHT22;6518;50.930;5.344;2022-09-16T13:10:29;15.30;88.60
12901;DHT22;6518;50.930;5.344;2022-09-16T13:12:59;15.40;87.40
12901;DHT22;6518;50.930;5.344;2022-09-16T13:15:29;15.50;87.00
12901;DHT22;6518;50.930;5.344;2022-09-16T13:18:07;15.60;87.40
12901;DHT22;6518;50.930;5.344;2022-09-16T13:20:39;15.70;84.60
12901;DHT22;6518;50.930;5.344;2022-09-16T13:23:12;15.80;83.10
12901;DHT22;6518;50.930;5.344;2022-09-16T13:25:47;15.90;80.90
12901;DHT22;6518;50.930;5.344;2022-09-16T13:28:33;16.00;80.50
12901;DHT22;6518;50.930;5.344;2022-09-16T13:31:18;16.10;79.70
12901;DHT22;6518;50.930;5.344;2022-09-16T13:33:47;16.20;77.40
12901;DHT22;6518;50.930;5.344;2022-09-16T13:36:28;16.10;76.40
12901;DHT22;6518;50.930;5.344;2022-09-16T13:38:58;16.20;77.50
12901;DHT22;6518;50.930;5.344;2022-09-16T13:41:32;16.30;76.20
12901;DHT22;6518;50.930;5.344;2022-09-16T13:44:00;16.30;75.10
12901;DHT22;6518;50.930;5.344;2022-09-16T13:46:30;16.30;74.60
12901;DHT22;6518;50.930;5.344;2022-09-16T13:49:17;16.40;74.10
12901;DHT22;6518;50.930;5.344;2022-09-16T13:51:46;16.30;72.30
12901;DHT22;6518;50.930;5.344;2022-09-16T13:54:25;16.20;73.50
12901;DHT22;6518;50.930;5.344;2022-09-16T13:57:15;16.10;73.70
12901;DHT22;6518;50.930;5.344;2022-09-16T14:00:05;16.10;73.60
12901;DHT22;6518;50.930;5.344;2022-09-16T14:02:54;16.00;72.60
12901;DHT22;6518;50.930;5.344;2022-09-16T14:05:36;15.90;73.30
12901;DHT22;6518;50.930;5.344;2022-09-16T14:08:15;15.90;72.60
12901;DHT22;6518;50.930;5.344;2022-09-16T14:10:52;15.80;72.10
12901;DHT22;6518;50.930;5.344;2022-09-16T14:13:23;15.80;72.70
12901;DHT22;6518;50.930;5.344;2022-09-16T14:15:51;15.70;72.70
12901;DHT22;6518;50.930;5.344;2022-09-16T14:18:22;15.70;72.90
12901;DHT22;6518;50.930;5.344;2022-09-16T14:20:58;15.80;72.00
12901;DHT22;6518;50.930;5.344;2022-09-16T14:23:28;15.70;70.40
12901;DHT22;6518;50.930;5.344;2022-09-16T14:25:57;15.60;70.50
12901;DHT22;6518;50.930;5.344;2022-09-16T14:28:34;15.50;71.40
12901;DHT22;6518;50.930;5.344;2022-09-16T14:31:06;15.50;71.70
12901;DHT22;6518;50.930;5.344;2022-09-16T14:33:36;15.60;71.90
12901;DHT22;6518;50.930;5.344;2022-09-16T14:36:09;15.60;71.40
12901;DHT22;6518;50.930;5.344;2022-09-16T14:38:41;15.60;70.80
12901;DHT22;6518;50.930;5.344;2022-09-16T14:41:17;15.50;70.40
12901;DHT22;6518;50.930;5.344;2022-09-16T14:43:45;15.50;71.30
12901;DHT22;6518;50.930;5.344;2022-09-16T14:46:12;15.70;71.90
12901;DHT22;6518;50.930;5.344;2022-09-16T14:48:40;15.90;71.10
12901;DHT22;6518;50.930;5.344;2022-09-16T14:51:13;16.00;71.20
12901;DHT22;6518;50.930;5.344;2022-09-16T14:53:53;16.20;70.70
12901;DHT22;6518;50.930;5.344;2022-09-16T14:56:22;16.20;69.70
12901;DHT22;6518;50.930;5.344;2022-09-16T14:58:50;16.20;70.10
12901;DHT22;6518;50.930;5.344;2022-09-16T15:01:21;16.20;70.00
12901;DHT22;6518;50.930;5.344;2022-09-16T15:03:51;16.10;68.50
12901;DHT22;6518;50.930;5.344;2022-09-16T15:06:21;16.10;70.10
12901;DHT22;6518;50.930;5.344;2022-09-16T15:08:50;16.10;69.30
12901;DHT22;6518;50.930;5.344;2022-09-16T15:11:22;15.90;69.00
12901;DHT22;6518;50.930;5.344;2022-09-16T15:13:51;15.80;68.90
12901;DHT22;6518;50.930;5.344;2022-09-16T15:16:21;15.70;70.00
12901;DHT22;6518;50.930;5.344;2022-09-16T15:18:52;15.20;70.20
12901;DHT22;6518;50.930;5.344;2022-09-16T15:21:22;14.50;70.10
12901;DHT22;6518;50.930;5.344;2022-09-16T15:23:50;13.90;71.70
12901;DHT22;6518;50.930;5.344;2022-09-16T15:26:19;13.70;74.00
12901;DHT22;6518;50.930;5.344;2022-09-16T15:28:56;13.60;74.40
12901;DHT22;6518;50.930;5.344;2022-09-16T15:31:29;13.50;75.00
12901;DHT22;6518;50.930;5.344;2022-09-16T15:33:58;13.50;75.50
12901;DHT22;6518;50.930;5.344;2022-09-16T15:36:36;13.50;75.70
12901;DHT22;6518;50.930;5.344;2022-09-16T15:39:03;13.60;76.30
12901;DHT22;6518;50.930;5.344;2022-09-16T15:41:30;13.60;76.50
12901;DHT22;6518;50.930;5.344;2022-09-16T15:43:59;13.60;76.80
12901;DHT22;6518;50.930;5.344;2022-09-16T15:46:27;13.70;76.90
12901;DHT22;6518;50.930;5.344;2022-09-16T15:48:56;13.80;76.90
12901;DHT22;6518;50.930;5.344;2022-09-16T15:51:28;13.80;76.90
12901;DHT22;6518;50.930;5.344;2022-09-16T15:54:00;13.80;77.20
12901;DHT22;6518;50.930;5.344;2022-09-16T15:56:32;13.80;77.50
12901;DHT22;6518;50.930;5.344;2022-09-16T15:59:04;13.90;77.80
12901;DHT22;6518;50.930;5.344;2022-09-16T16:01:39;13.90;78.40
12901;DHT22;6518;50.930;5.344;2022-09-16T16:04:10;14.00;79.30
12901;DHT22;6518;50.930;5.344;2022-09-16T16:06:47;14.00;79.80
12901;DHT22;6518;50.930;5.344;2022-09-16T16:09:36;14.00;80.20
12901;DHT22;6518;50.930;5.344;2022-09-16T16:12:06;14.00;80.40
12901;DHT22;6518;50.930;5.344;2022-09-16T16:14:36;14.00;80.90
12901;DHT22;6518;50.930;5.344;2022-09-16T16:17:05;14.00;81.80
12901;DHT22;6518;50.930;5.344;2022-09-16T16:19:33;14.10;82.50
12901;DHT22;6518;50.930;5.344;2022-09-16T16:22:01;14.10;83.70